Weer

Current Metar

EHAM: EHAM 191955Z 27007KT 240V300 9999 FEW021 18/15 Q1023 NOSIG
EHRD: EHRD 191955Z AUTO 26004KT 220V290 9999 SCT019 BKN023 OVC026 19/15 Q1023 NOSIG
EHGG: EHGG 191955Z AUTO 22002KT 9999 OVC045 18/15 Q1022 NOSIG
EHEH: EHEH 191955Z AUTO 19002KT 9000 BR OVC034 19/16 Q1023 BLU VRB03KT 9999 SCT022 BKN035
EHBK: EHBK 191955Z AUTO VRB02KT 9999 OVC032 19/16 Q1024 NOSIG

Search METAR


Wind Charts

+ 0600h
FL100 FL180 FL240 FL300 FL340

+ 1200h
FL100 FL180 FL240 FL300 FL340

+ 1800h
FL100 FL180 FL240 FL300 FL340

+ 2400h
FL100 FL180 FL240 FL300 FL340

Europe & Africa charts only, updated daily.

 

Weather Services

MET Office